sensor_id;sensor_type;location;lat;lon;timestamp;pressure;altitude;pressure_sealevel;temperature;humidity
51452;BME280;37521;52.020;-1.740;2023-11-19T00:00:27;98865.97;;;8.77;100.00
51452;BME280;37521;52.020;-1.740;2023-11-19T00:02:56;98867.91;;;8.73;100.00
51452;BME280;37521;52.020;-1.740;2023-11-19T00:05:26;98871.41;;;8.73;100.00
51452;BME280;37521;52.020;-1.740;2023-11-19T00:07:54;98879.69;;;8.82;100.00
51452;BME280;37521;52.020;-1.740;2023-11-19T00:10:23;98872.59;;;8.84;100.00
51452;BME280;37521;52.020;-1.740;2023-11-19T00:12:52;98863.16;;;8.80;100.00
51452;BME280;37521;52.020;-1.740;2023-11-19T00:15:20;98844.94;;;8.77;100.00
51452;BME280;37521;52.020;-1.740;2023-11-19T00:17:51;98849.84;;;8.83;100.00
51452;BME280;37521;52.020;-1.740;2023-11-19T00:20:20;98854.41;;;8.79;100.00
51452;BME280;37521;52.020;-1.740;2023-11-19T00:22:51;98851.88;;;8.78;100.00
51452;BME280;37521;52.020;-1.740;2023-11-19T00:25:20;98860.53;;;8.80;100.00
51452;BME280;37521;52.020;-1.740;2023-11-19T00:27:49;98853.56;;;8.79;100.00
51452;BME280;37521;52.020;-1.740;2023-11-19T00:30:21;98856.47;;;8.74;100.00
51452;BME280;37521;52.020;-1.740;2023-11-19T00:32:49;98833.63;;;8.74;100.00
51452;BME280;37521;52.020;-1.740;2023-11-19T00:35:18;98852.88;;;8.75;100.00
51452;BME280;37521;52.020;-1.740;2023-11-19T00:37:46;98845.78;;;8.77;100.00
51452;BME280;37521;52.020;-1.740;2023-11-19T00:40:18;98843.69;;;8.82;100.00
51452;BME280;37521;52.020;-1.740;2023-11-19T00:42:50;98843.63;;;8.84;100.00
51452;BME280;37521;52.020;-1.740;2023-11-19T00:45:19;98847.09;;;8.84;100.00
51452;BME280;37521;52.020;-1.740;2023-11-19T00:47:47;98844.72;;;8.80;100.00
51452;BME280;37521;52.020;-1.740;2023-11-19T00:50:16;98821.25;;;8.77;100.00
51452;BME280;37521;52.020;-1.740;2023-11-19T00:52:45;98828.94;;;8.80;100.00
51452;BME280;37521;52.020;-1.740;2023-11-19T00:55:14;98830.63;;;8.81;100.00
51452;BME280;37521;52.020;-1.740;2023-11-19T00:57:44;98825.56;;;8.78;100.00
51452;BME280;37521;52.020;-1.740;2023-11-19T01:00:14;98826.66;;;8.73;100.00
51452;BME280;37521;52.020;-1.740;2023-11-19T01:02:46;98839.91;;;8.72;100.00
51452;BME280;37521;52.020;-1.740;2023-11-19T01:05:19;98838.88;;;8.74;100.00
51452;BME280;37521;52.020;-1.740;2023-11-19T01:07:50;98837.28;;;8.72;100.00
51452;BME280;37521;52.020;-1.740;2023-11-19T01:10:22;98829.63;;;8.67;100.00
51452;BME280;37521;52.020;-1.740;2023-11-19T01:12:53;98835.84;;;8.66;100.00
51452;BME280;37521;52.020;-1.740;2023-11-19T01:15:22;98834.31;;;8.62;100.00
51452;BME280;37521;52.020;-1.740;2023-11-19T01:17:50;98836.94;;;8.62;100.00
51452;BME280;37521;52.020;-1.740;2023-11-19T01:20:20;98834.06;;;8.67;100.00
51452;BME280;37521;52.020;-1.740;2023-11-19T01:22:48;98854.09;;;8.69;100.00
51452;BME280;37521;52.020;-1.740;2023-11-19T01:25:17;98824.22;;;8.70;100.00
51452;BME280;37521;52.020;-1.740;2023-11-19T01:27:47;98840.41;;;8.79;100.00
51452;BME280;37521;52.020;-1.740;2023-11-19T01:30:18;98853.72;;;8.76;100.00
51452;BME280;37521;52.020;-1.740;2023-11-19T01:32:49;98850.19;;;8.77;100.00
51452;BME280;37521;52.020;-1.740;2023-11-19T01:35:17;98844.34;;;8.71;100.00
51452;BME280;37521;52.020;-1.740;2023-11-19T01:37:45;98841.44;;;8.76;100.00
51452;BME280;37521;52.020;-1.740;2023-11-19T01:40:14;98829.13;;;8.77;100.00
51452;BME280;37521;52.020;-1.740;2023-11-19T01:42:43;98865.03;;;8.78;100.00
51452;BME280;37521;52.020;-1.740;2023-11-19T01:45:27;98835.06;;;8.80;100.00
51452;BME280;37521;52.020;-1.740;2023-11-19T01:47:59;98835.25;;;8.77;100.00
51452;BME280;37521;52.020;-1.740;2023-11-19T01:50:28;98839.81;;;8.73;100.00
51452;BME280;37521;52.020;-1.740;2023-11-19T01:52:58;98840.75;;;8.72;100.00
51452;BME280;37521;52.020;-1.740;2023-11-19T01:55:27;98820.66;;;8.71;100.00
51452;BME280;37521;52.020;-1.740;2023-11-19T01:58:00;98838.97;;;8.73;100.00
51452;BME280;37521;52.020;-1.740;2023-11-19T02:00:30;98845.94;;;8.74;100.00
51452;BME280;37521;52.020;-1.740;2023-11-19T02:03:00;98831.19;;;8.71;100.00
51452;BME280;37521;52.020;-1.740;2023-11-19T02:05:30;98830.22;;;8.72;100.00
51452;BME280;37521;52.020;-1.740;2023-11-19T02:07:59;98833.06;;;8.69;100.00
51452;BME280;37521;52.020;-1.740;2023-11-19T02:10:28;98829.28;;;8.73;100.00
51452;BME280;37521;52.020;-1.740;2023-11-19T02:12:56;98838.97;;;8.73;100.00
51452;BME280;37521;52.020;-1.740;2023-11-19T02:15:34;98830.47;;;8.84;100.00
51452;BME280;37521;52.020;-1.740;2023-11-19T02:18:19;98838.75;;;8.92;100.00
51452;BME280;37521;52.020;-1.740;2023-11-19T02:20:46;98840.66;;;8.90;100.00
51452;BME280;37521;52.020;-1.740;2023-11-19T02:23:18;98823.63;;;8.95;100.00
51452;BME280;37521;52.020;-1.740;2023-11-19T02:25:59;98837.47;;;8.99;100.00
51452;BME280;37521;52.020;-1.740;2023-11-19T02:28:31;98840.25;;;8.96;100.00
51452;BME280;37521;52.020;-1.740;2023-11-19T02:31:00;98838.75;;;8.92;100.00
51452;BME280;37521;52.020;-1.740;2023-11-19T02:33:28;98833.66;;;8.89;100.00
51452;BME280;37521;52.020;-1.740;2023-11-19T02:35:57;98835.38;;;8.90;100.00
51452;BME280;37521;52.020;-1.740;2023-11-19T02:38:25;98847.75;;;8.88;100.00
51452;BME280;37521;52.020;-1.740;2023-11-19T02:40:54;98843.44;;;8.87;100.00
51452;BME280;37521;52.020;-1.740;2023-11-19T02:43:22;98852.28;;;8.86;100.00
51452;BME280;37521;52.020;-1.740;2023-11-19T02:45:52;98839.03;;;8.87;100.00
51452;BME280;37521;52.020;-1.740;2023-11-19T02:48:22;98829.69;;;8.82;100.00
51452;BME280;37521;52.020;-1.740;2023-11-19T02:50:51;98834.41;;;8.77;100.00
51452;BME280;37521;52.020;-1.740;2023-11-19T02:53:20;98849.25;;;8.78;100.00
51452;BME280;37521;52.020;-1.740;2023-11-19T02:55:50;98836.75;;;8.81;100.00
51452;BME280;37521;52.020;-1.740;2023-11-19T02:58:18;98840.72;;;8.88;100.00
51452;BME280;37521;52.020;-1.740;2023-11-19T03:00:53;98832.66;;;8.91;100.00
51452;BME280;37521;52.020;-1.740;2023-11-19T03:03:25;98833.31;;;8.95;100.00
51452;BME280;37521;52.020;-1.740;2023-11-19T03:05:58;98840.25;;;8.96;100.00
51452;BME280;37521;52.020;-1.740;2023-11-19T03:08:27;98824.47;;;8.96;100.00
51452;BME280;37521;52.020;-1.740;2023-11-19T03:10:56;98824.31;;;8.99;100.00
51452;BME280;37521;52.020;-1.740;2023-11-19T03:13:26;98818.09;;;9.00;100.00
51452;BME280;37521;52.020;-1.740;2023-11-19T03:15:55;98806.22;;;8.93;100.00
51452;BME280;37521;52.020;-1.740;2023-11-19T03:18:24;98809.41;;;8.84;100.00
51452;BME280;37521;52.020;-1.740;2023-11-19T03:20:54;98830.63;;;8.81;100.00
51452;BME280;37521;52.020;-1.740;2023-11-19T03:23:22;98822.84;;;8.79;100.00
51452;BME280;37521;52.020;-1.740;2023-11-19T03:25:51;98824.72;;;8.77;100.00
51452;BME280;37521;52.020;-1.740;2023-11-19T03:28:21;98806.56;;;8.72;100.00
51452;BME280;37521;52.020;-1.740;2023-11-19T03:30:49;98811.81;;;8.72;100.00
51452;BME280;37521;52.020;-1.740;2023-11-19T03:33:19;98807.31;;;8.74;100.00
51452;BME280;37521;52.020;-1.740;2023-11-19T03:35:48;98808.06;;;8.77;100.00
51452;BME280;37521;52.020;-1.740;2023-11-19T03:38:18;98790.41;;;8.79;100.00
51452;BME280;37521;52.020;-1.740;2023-11-19T03:40:46;98799.25;;;8.78;100.00
51452;BME280;37521;52.020;-1.740;2023-11-19T03:43:15;98820.28;;;8.78;100.00
51452;BME280;37521;52.020;-1.740;2023-11-19T03:45:44;98811.56;;;8.77;100.00
51452;BME280;37521;52.020;-1.740;2023-11-19T03:48:13;98805.59;;;8.73;100.00
51452;BME280;37521;52.020;-1.740;2023-11-19T03:50:44;98801.63;;;8.66;100.00
51452;BME280;37521;52.020;-1.740;2023-11-19T03:53:13;98808.94;;;8.61;100.00
51452;BME280;37521;52.020;-1.740;2023-11-19T03:55:41;98818.97;;;8.55;100.00
51452;BME280;37521;52.020;-1.740;2023-11-19T03:58:10;98814.75;;;8.52;100.00
51452;BME280;37521;52.020;-1.740;2023-11-19T04:00:39;98819.50;;;8.45;100.00
51452;BME280;37521;52.020;-1.740;2023-11-19T04:03:08;98817.41;;;8.36;100.00
51452;BME280;37521;52.020;-1.740;2023-11-19T04:05:36;98813.44;;;8.28;100.00
51452;BME280;37521;52.020;-1.740;2023-11-19T04:08:06;98813.13;;;8.18;100.00
51452;BME280;37521;52.020;-1.740;2023-11-19T04:10:35;98806.63;;;8.09;100.00
51452;BME280;37521;52.020;-1.740;2023-11-19T04:13:04;98811.34;;;8.03;100.00
51452;BME280;37521;52.020;-1.740;2023-11-19T04:15:32;98813.09;;;8.02;100.00
51452;BME280;37521;52.020;-1.740;2023-11-19T04:18:00;98818.72;;;7.96;100.00
51452;BME280;37521;52.020;-1.740;2023-11-19T04:20:29;98815.31;;;7.94;100.00
51452;BME280;37521;52.020;-1.740;2023-11-19T04:22:58;98824.03;;;7.95;100.00
51452;BME280;37521;52.020;-1.740;2023-11-19T04:25:29;98818.22;;;7.89;100.00
51452;BME280;37521;52.020;-1.740;2023-11-19T04:27:57;98825.06;;;7.92;100.00
51452;BME280;37521;52.020;-1.740;2023-11-19T04:30:26;98819.63;;;7.95;100.00
51452;BME280;37521;52.020;-1.740;2023-11-19T04:32:54;98811.50;;;8.00;100.00
51452;BME280;37521;52.020;-1.740;2023-11-19T04:35:23;98817.47;;;8.03;100.00
51452;BME280;37521;52.020;-1.740;2023-11-19T04:37:53;98822.19;;;8.12;100.00
51452;BME280;37521;52.020;-1.740;2023-11-19T04:40:24;98817.25;;;8.22;100.00
51452;BME280;37521;52.020;-1.740;2023-11-19T04:42:54;98820.50;;;8.27;100.00
51452;BME280;37521;52.020;-1.740;2023-11-19T04:45:22;98812.34;;;8.32;100.00
51452;BME280;37521;52.020;-1.740;2023-11-19T04:47:51;98815.63;;;8.37;100.00
51452;BME280;37521;52.020;-1.740;2023-11-19T04:50:19;98808.38;;;8.40;100.00
51452;BME280;37521;52.020;-1.740;2023-11-19T04:52:48;98814.41;;;8.42;100.00
51452;BME280;37521;52.020;-1.740;2023-11-19T04:55:17;98818.16;;;8.38;100.00
51452;BME280;37521;52.020;-1.740;2023-11-19T04:57:45;98808.63;;;8.36;100.00
51452;BME280;37521;52.020;-1.740;2023-11-19T05:00:16;98813.91;;;8.36;100.00
51452;BME280;37521;52.020;-1.740;2023-11-19T05:02:44;98812.03;;;8.38;100.00
51452;BME280;37521;52.020;-1.740;2023-11-19T05:05:12;98805.84;;;8.39;100.00
51452;BME280;37521;52.020;-1.740;2023-11-19T05:07:41;98788.19;;;8.41;100.00
51452;BME280;37521;52.020;-1.740;2023-11-19T05:10:10;98795.41;;;8.37;100.00
51452;BME280;37521;52.020;-1.740;2023-11-19T05:12:38;98804.28;;;8.35;100.00
51452;BME280;37521;52.020;-1.740;2023-11-19T05:15:09;98800.16;;;8.31;100.00
51452;BME280;37521;52.020;-1.740;2023-11-19T05:17:40;98803.88;;;8.27;100.00
51452;BME280;37521;52.020;-1.740;2023-11-19T05:20:09;98781.16;;;8.26;100.00
51452;BME280;37521;52.020;-1.740;2023-11-19T05:22:41;98788.44;;;8.20;100.00
51452;BME280;37521;52.020;-1.740;2023-11-19T05:25:09;98809.81;;;8.14;100.00
51452;BME280;37521;52.020;-1.740;2023-11-19T05:27:38;98804.72;;;8.11;100.00
51452;BME280;37521;52.020;-1.740;2023-11-19T05:30:07;98813.72;;;8.07;100.00
51452;BME280;37521;52.020;-1.740;2023-11-19T05:32:39;98803.03;;;8.10;100.00
51452;BME280;37521;52.020;-1.740;2023-11-19T05:35:08;98802.84;;;8.13;100.00
51452;BME280;37521;52.020;-1.740;2023-11-19T05:37:36;98804.41;;;8.17;100.00
51452;BME280;37521;52.020;-1.740;2023-11-19T05:40:06;98802.53;;;8.19;100.00
51452;BME280;37521;52.020;-1.740;2023-11-19T05:42:42;98803.47;;;8.18;100.00
51452;BME280;37521;52.020;-1.740;2023-11-19T05:45:11;98798.19;;;8.18;100.00
51452;BME280;37521;52.020;-1.740;2023-11-19T05:47:42;98793.09;;;8.15;100.00
51452;BME280;37521;52.020;-1.740;2023-11-19T05:50:11;98796.75;;;8.13;100.00
51452;BME280;37521;52.020;-1.740;2023-11-19T05:52:39;98793.09;;;8.15;100.00
51452;BME280;37521;52.020;-1.740;2023-11-19T05:55:08;98778.09;;;8.17;100.00
51452;BME280;37521;52.020;-1.740;2023-11-19T05:57:38;98791.16;;;8.19;100.00
51452;BME280;37521;52.020;-1.740;2023-11-19T06:00:10;98783.19;;;8.20;100.00
51452;BME280;37521;52.020;-1.740;2023-11-19T06:02:41;98798.84;;;8.22;100.00
51452;BME280;37521;52.020;-1.740;2023-11-19T06:05:10;98788.19;;;8.25;100.00
51452;BME280;37521;52.020;-1.740;2023-11-19T06:07:39;98787.25;;;8.26;100.00
51452;BME280;37521;52.020;-1.740;2023-11-19T06:10:09;98787.09;;;8.29;100.00
51452;BME280;37521;52.020;-1.740;2023-11-19T06:12:38;98784.19;;;8.34;100.00
51452;BME280;37521;52.020;-1.740;2023-11-19T06:15:09;98772.72;;;8.35;100.00
51452;BME280;37521;52.020;-1.740;2023-11-19T06:17:38;98779.25;;;8.28;100.00
51452;BME280;37521;52.020;-1.740;2023-11-19T06:20:10;98777.75;;;8.24;100.00
51452;BME280;37521;52.020;-1.740;2023-11-19T06:22:39;98783.19;;;8.20;100.00
51452;BME280;37521;52.020;-1.740;2023-11-19T06:25:09;98790.13;;;8.22;100.00
51452;BME280;37521;52.020;-1.740;2023-11-19T06:27:42;98787.50;;;8.22;100.00
51452;BME280;37521;52.020;-1.740;2023-11-19T06:30:11;98779.44;;;8.25;100.00
51452;BME280;37521;52.020;-1.740;2023-11-19T06:32:39;98799.56;;;8.26;100.00
51452;BME280;37521;52.020;-1.740;2023-11-19T06:35:10;98796.91;;;8.26;100.00
51452;BME280;37521;52.020;-1.740;2023-11-19T06:37:38;98796.56;;;8.32;100.00
51452;BME280;37521;52.020;-1.740;2023-11-19T06:40:08;98811.66;;;8.28;100.00
51452;BME280;37521;52.020;-1.740;2023-11-19T06:42:37;98805.75;;;8.25;100.00
51452;BME280;37521;52.020;-1.740;2023-11-19T06:45:07;98811.34;;;8.18;100.00
51452;BME280;37521;52.020;-1.740;2023-11-19T06:47:36;98803.03;;;8.10;100.00
51452;BME280;37521;52.020;-1.740;2023-11-19T06:50:06;98810.16;;;8.08;100.00
51452;BME280;37521;52.020;-1.740;2023-11-19T06:52:37;98792.88;;;8.04;100.00
51452;BME280;37521;52.020;-1.740;2023-11-19T06:55:08;98799.41;;;7.97;100.00
51452;BME280;37521;52.020;-1.740;2023-11-19T06:57:36;98794.47;;;7.91;100.00
51452;BME280;37521;52.020;-1.740;2023-11-19T07:00:06;98795.56;;;7.87;100.00
51452;BME280;37521;52.020;-1.740;2023-11-19T07:02:35;98802.78;;;7.83;100.00
51452;BME280;37521;52.020;-1.740;2023-11-19T07:05:04;98796.75;;;7.81;100.00
51452;BME280;37521;52.020;-1.740;2023-11-19T07:07:33;98798.28;;;7.85;100.00
51452;BME280;37521;52.020;-1.740;2023-11-19T07:10:05;98790.16;;;7.90;100.00
51452;BME280;37521;52.020;-1.740;2023-11-19T07:12:36;98782.41;;;7.87;100.00
51452;BME280;37521;52.020;-1.740;2023-11-19T07:15:06;98791.16;;;7.87;100.00
51452;BME280;37521;52.020;-1.740;2023-11-19T07:17:35;98790.31;;;7.87;100.00
51452;BME280;37521;52.020;-1.740;2023-11-19T07:20:04;98792.94;;;7.87;100.00
51452;BME280;37521;52.020;-1.740;2023-11-19T07:22:33;98794.72;;;7.86;100.00
51452;BME280;37521;52.020;-1.740;2023-11-19T07:25:01;98793.13;;;7.84;100.00
51452;BME280;37521;52.020;-1.740;2023-11-19T07:27:31;98792.00;;;7.88;100.00
51452;BME280;37521;52.020;-1.740;2023-11-19T07:30:00;98784.72;;;7.93;100.00
51452;BME280;37521;52.020;-1.740;2023-11-19T07:32:28;98786.75;;;8.04;100.00
51452;BME280;37521;52.020;-1.740;2023-11-19T07:34:57;98780.31;;;8.09;100.00
51452;BME280;37521;52.020;-1.740;2023-11-19T07:37:25;98794.81;;;8.16;100.00
51452;BME280;37521;52.020;-1.740;2023-11-19T07:39:54;98789.97;;;8.25;100.00
51452;BME280;37521;52.020;-1.740;2023-11-19T07:42:22;98787.34;;;8.25;100.00
51452;BME280;37521;52.020;-1.740;2023-11-19T07:44:52;98776.81;;;8.25;100.00
51452;BME280;37521;52.020;-1.740;2023-11-19T07:47:22;98786.41;;;8.26;100.00
51452;BME280;37521;52.020;-1.740;2023-11-19T07:49:51;98782.69;;;8.30;100.00
51452;BME280;37521;52.020;-1.740;2023-11-19T07:52:19;98785.88;;;8.35;100.00
51452;BME280;37521;52.020;-1.740;2023-11-19T07:54:48;98799.13;;;8.33;100.00
51452;BME280;37521;52.020;-1.740;2023-11-19T07:57:16;98791.94;;;8.37;100.00
51452;BME280;37521;52.020;-1.740;2023-11-19T07:59:45;98782.19;;;8.39;100.00
51452;BME280;37521;52.020;-1.740;2023-11-19T08:02:15;98783.13;;;8.38;100.00
51452;BME280;37521;52.020;-1.740;2023-11-19T08:04:43;98783.88;;;8.40;100.00
51452;BME280;37521;52.020;-1.740;2023-11-19T08:07:13;98762.06;;;8.38;100.00
51452;BME280;37521;52.020;-1.740;2023-11-19T08:09:41;98766.41;;;8.39;100.00
51452;BME280;37521;52.020;-1.740;2023-11-19T08:12:10;98785.41;;;8.44;100.00
51452;BME280;37521;52.020;-1.740;2023-11-19T08:14:41;98783.53;;;8.46;100.00
51452;BME280;37521;52.020;-1.740;2023-11-19T08:17:10;98775.81;;;8.43;100.00
51452;BME280;37521;52.020;-1.740;2023-11-19T08:19:40;98782.78;;;8.44;100.00
51452;BME280;37521;52.020;-1.740;2023-11-19T08:22:08;98777.31;;;8.47;100.00
51452;BME280;37521;52.020;-1.740;2023-11-19T08:24:37;98768.22;;;8.53;100.00
51452;BME280;37521;52.020;-1.740;2023-11-19T08:27:05;98776.53;;;8.61;100.00
51452;BME280;37521;52.020;-1.740;2023-11-19T08:29:34;98775.31;;;8.66;100.00
51452;BME280;37521;52.020;-1.740;2023-11-19T08:32:03;98760.50;;;8.80;100.00
51452;BME280;37521;52.020;-1.740;2023-11-19T08:34:31;98768.06;;;8.86;100.00
51452;BME280;37521;52.020;-1.740;2023-11-19T08:37:01;98757.25;;;8.90;100.00
51452;BME280;37521;52.020;-1.740;2023-11-19T08:39:30;98749.84;;;8.97;100.00
51452;BME280;37521;52.020;-1.740;2023-11-19T08:41:59;98757.19;;;9.06;100.00
51452;BME280;37521;52.020;-1.740;2023-11-19T08:44:27;98764.50;;;9.15;100.00
51452;BME280;37521;52.020;-1.740;2023-11-19T08:46:56;98766.88;;;9.20;100.00
51452;BME280;37521;52.020;-1.740;2023-11-19T08:49:24;98769.16;;;9.26;100.00
51452;BME280;37521;52.020;-1.740;2023-11-19T08:51:53;98773.56;;;9.25;100.00
51452;BME280;37521;52.020;-1.740;2023-11-19T08:54:23;98770.19;;;9.23;100.00
51452;BME280;37521;52.020;-1.740;2023-11-19T08:56:51;98758.97;;;9.20;100.00
51452;BME280;37521;52.020;-1.740;2023-11-19T08:59:20;98763.59;;;9.16;100.00
51452;BME280;37521;52.020;-1.740;2023-11-19T09:01:48;98753.91;;;9.17;100.00
51452;BME280;37521;52.020;-1.740;2023-11-19T09:04:17;98752.75;;;9.21;100.00
51452;BME280;37521;52.020;-1.740;2023-11-19T09:06:49;98756.25;;;9.21;100.00
51452;BME280;37521;52.020;-1.740;2023-11-19T09:09:18;98755.28;;;9.22;100.00
51452;BME280;37521;52.020;-1.740;2023-11-19T09:11:47;98752.88;;;9.19;100.00
51452;BME280;37521;52.020;-1.740;2023-11-19T09:14:16;98753.81;;;9.18;100.00
51452;BME280;37521;52.020;-1.740;2023-11-19T09:16:45;98759.44;;;9.12;100.00
51452;BME280;37521;52.020;-1.740;2023-11-19T09:19:13;98778.25;;;9.06;100.00
51452;BME280;37521;52.020;-1.740;2023-11-19T09:21:42;98755.84;;;8.99;100.00
51452;BME280;37521;52.020;-1.740;2023-11-19T09:24:10;98773.81;;;8.92;100.00
51452;BME280;37521;52.020;-1.740;2023-11-19T09:26:42;98766.16;;;8.88;100.00
51452;BME280;37521;52.020;-1.740;2023-11-19T09:29:13;98762.41;;;8.92;100.00
51452;BME280;37521;52.020;-1.740;2023-11-19T09:31:42;98750.94;;;8.93;100.00
51452;BME280;37521;52.020;-1.740;2023-11-19T09:34:10;98746.63;;;8.92;100.00
51452;BME280;37521;52.020;-1.740;2023-11-19T09:36:39;98743.72;;;8.96;100.00
51452;BME280;37521;52.020;-1.740;2023-11-19T09:39:11;98740.63;;;9.04;100.00
51452;BME280;37521;52.020;-1.740;2023-11-19T09:41:42;98741.19;;;9.09;100.00
51452;BME280;37521;52.020;-1.740;2023-11-19T09:44:13;98742.22;;;9.07;100.00
51452;BME280;37521;52.020;-1.740;2023-11-19T09:46:45;98736.31;;;9.03;100.00
51452;BME280;37521;52.020;-1.740;2023-11-19T09:49:18;98734.44;;;9.05;100.00
51452;BME280;37521;52.020;-1.740;2023-11-19T09:52:02;98726.25;;;9.10;100.00
51452;BME280;37521;52.020;-1.740;2023-11-19T09:54:31;98726.91;;;9.13;100.00
51452;BME280;37521;52.020;-1.740;2023-11-19T09:57:01;98728.41;;;9.17;100.00
51452;BME280;37521;52.020;-1.740;2023-11-19T09:59:33;98738.38;;;9.26;100.00
51452;BME280;37521;52.020;-1.740;2023-11-19T10:02:02;98743.38;;;9.31;100.00
51452;BME280;37521;52.020;-1.740;2023-11-19T10:04:35;98734.63;;;9.31;100.00
51452;BME280;37521;52.020;-1.740;2023-11-19T10:07:04;98736.59;;;9.27;100.00
51452;BME280;37521;52.020;-1.740;2023-11-19T10:09:32;98745.44;;;9.26;100.00
51452;BME280;37521;52.020;-1.740;2023-11-19T10:12:01;98748.75;;;9.30;100.00
51452;BME280;37521;52.020;-1.740;2023-11-19T10:14:32;98743.06;;;9.36;100.00
51452;BME280;37521;52.020;-1.740;2023-11-19T10:17:04;98758.88;;;9.36;100.00
51452;BME280;37521;52.020;-1.740;2023-11-19T10:19:35;98751.91;;;9.35;100.00
51452;BME280;37521;52.020;-1.740;2023-11-19T10:22:04;98753.59;;;9.36;100.00
51452;BME280;37521;52.020;-1.740;2023-11-19T10:24:33;98762.38;;;9.36;100.00
51452;BME280;37521;52.020;-1.740;2023-11-19T10:27:07;98751.91;;;9.35;100.00
51452;BME280;37521;52.020;-1.740;2023-11-19T10:29:38;98758.88;;;9.36;100.00
51452;BME280;37521;52.020;-1.740;2023-11-19T10:32:06;98761.34;;;9.39;100.00
51452;BME280;37521;52.020;-1.740;2023-11-19T10:35:04;98751.44;;;9.42;100.00
51452;BME280;37521;52.020;-1.740;2023-11-19T10:37:33;98749.84;;;9.40;100.00
51452;BME280;37521;52.020;-1.740;2023-11-19T10:40:05;98761.34;;;9.39;100.00
51452;BME280;37521;52.020;-1.740;2023-11-19T10:42:37;98754.47;;;9.36;100.00
51452;BME280;37521;52.020;-1.740;2023-11-19T10:45:21;98749.22;;;9.36;100.00
51452;BME280;37521;52.020;-1.740;2023-11-19T10:47:51;98743.94;;;9.36;100.00
51452;BME280;37521;52.020;-1.740;2023-11-19T10:50:20;98742.22;;;9.35;100.00
51452;BME280;37521;52.020;-1.740;2023-11-19T10:52:52;98741.00;;;9.41;100.00
51452;BME280;37521;52.020;-1.740;2023-11-19T10:55:27;98743.16;;;9.48;100.00
51452;BME280;37521;52.020;-1.740;2023-11-19T10:58:01;98738.66;;;9.50;100.00
51452;BME280;37521;52.020;-1.740;2023-11-19T11:00:37;98731.41;;;9.54;100.00
51452;BME280;37521;52.020;-1.740;2023-11-19T11:03:10;98721.53;;;9.58;100.00
51452;BME280;37521;52.020;-1.740;2023-11-19T11:05:40;98726.22;;;9.67;100.00
51452;BME280;37521;52.020;-1.740;2023-11-19T11:08:09;98728.91;;;9.79;100.00
51452;BME280;37521;52.020;-1.740;2023-11-19T11:10:43;98734.53;;;9.88;100.00
51452;BME280;37521;52.020;-1.740;2023-11-19T11:13:16;98732.47;;;9.93;100.00
51452;BME280;37521;52.020;-1.740;2023-11-19T11:15:46;98732.06;;;9.99;100.00
51452;BME280;37521;52.020;-1.740;2023-11-19T11:18:16;98728.50;;;10.00;100.00
51452;BME280;37521;52.020;-1.740;2023-11-19T11:20:46;98712.56;;;10.01;100.00
51452;BME280;37521;52.020;-1.740;2023-11-19T11:23:32;98725.13;;;9.98;100.00
51452;BME280;37521;52.020;-1.740;2023-11-19T11:26:20;98725.28;;;9.95;100.00
51452;BME280;37521;52.020;-1.740;2023-11-19T11:28:59;98720.03;;;9.95;100.00
51452;BME280;37521;52.020;-1.740;2023-11-19T11:31:39;98734.50;;;10.02;100.00
51452;BME280;37521;52.020;-1.740;2023-11-19T11:34:42;98717.56;;;10.06;100.00
51452;BME280;37521;52.020;-1.740;2023-11-19T11:37:18;98728.28;;;10.03;100.00
51452;BME280;37521;52.020;-1.740;2023-11-19T11:39:47;98714.34;;;10.01;100.00
51452;BME280;37521;52.020;-1.740;2023-11-19T11:42:35;98718.16;;;9.97;100.00
51452;BME280;37521;52.020;-1.740;2023-11-19T11:45:05;98720.03;;;9.95;100.00
51452;BME280;37521;52.020;-1.740;2023-11-19T11:48:12;98731.91;;;9.88;100.00
51452;BME280;37521;52.020;-1.740;2023-11-19T11:50:56;98730.22;;;9.87;100.00
51452;BME280;37521;52.020;-1.740;2023-11-19T11:53:26;98721.47;;;9.86;100.00
51452;BME280;37521;52.020;-1.740;2023-11-19T11:55:56;98725.91;;;9.86;100.00
51452;BME280;37521;52.020;-1.740;2023-11-19T11:58:32;98719.88;;;9.83;100.00
51452;BME280;37521;52.020;-1.740;2023-11-19T12:01:03;98713.66;;;9.85;100.00
51452;BME280;37521;52.020;-1.740;2023-11-19T12:03:34;98712.72;;;9.86;100.00
51452;BME280;37521;52.020;-1.740;2023-11-19T12:06:06;98716.75;;;9.91;100.00
51452;BME280;37521;52.020;-1.740;2023-11-19T12:08:35;98717.28;;;9.96;100.00
51452;BME280;37521;52.020;-1.740;2023-11-19T12:11:06;98705.50;;;10.02;100.00
51452;BME280;37521;52.020;-1.740;2023-11-19T12:13:53;98715.31;;;10.00;100.00
51452;BME280;37521;52.020;-1.740;2023-11-19T12:16:22;98693.47;;;9.98;100.00
51452;BME280;37521;52.020;-1.740;2023-11-19T12:18:53;98694.72;;;9.92;100.00
51452;BME280;37521;52.020;-1.740;2023-11-19T12:21:29;98690.50;;;9.90;100.00
51452;BME280;37521;52.020;-1.740;2023-11-19T12:23:59;98696.50;;;9.92;100.00
51452;BME280;37521;52.020;-1.740;2023-11-19T12:26:35;98695.34;;;9.96;100.00
51452;BME280;37521;52.020;-1.740;2023-11-19T12:29:04;98686.09;;;10.03;100.00
51452;BME280;37521;52.020;-1.740;2023-11-19T12:31:35;98703.41;;;10.07;100.00
51452;BME280;37521;52.020;-1.740;2023-11-19T12:34:10;98690.97;;;10.09;100.00
51452;BME280;37521;52.020;-1.740;2023-11-19T12:36:40;98696.06;;;10.12;100.00
51452;BME280;37521;52.020;-1.740;2023-11-19T12:39:12;98689.00;;;10.13;100.00
51452;BME280;37521;52.020;-1.740;2023-11-19T12:41:51;98685.28;;;10.15;100.00
51452;BME280;37521;52.020;-1.740;2023-11-19T12:44:20;98669.28;;;10.18;100.00
51452;BME280;37521;52.020;-1.740;2023-11-19T12:47:02;98685.25;;;10.29;100.00
51452;BME280;37521;52.020;-1.740;2023-11-19T12:49:32;98665.34;;;10.38;100.00
51452;BME280;37521;52.020;-1.740;2023-11-19T12:52:01;98672.75;;;10.46;100.00
51452;BME280;37521;52.020;-1.740;2023-11-19T12:54:34;98657.88;;;10.45;100.00
51452;BME280;37521;52.020;-1.740;2023-11-19T12:57:04;98672.94;;;10.43;100.00
51452;BME280;37521;52.020;-1.740;2023-11-19T12:59:34;98652.91;;;10.40;100.00
51452;BME280;37521;52.020;-1.740;2023-11-19T13:02:02;98653.00;;;10.39;100.00
51452;BME280;37521;52.020;-1.740;2023-11-19T13:04:34;98664.91;;;10.31;100.00
51452;BME280;37521;52.020;-1.740;2023-11-19T13:07:03;98666.44;;;10.21;100.00